sensor_id;sensor_type;location;lat;lon;timestamp;P1;durP1;ratioP1;P2;durP2;ratioP2
60614;SDS011;46444;45.590;5.284;2023-04-24T00:01:23;16.65;;;15.80;;
60614;SDS011;46444;45.590;5.284;2023-04-24T00:03:48;18.98;;;17.77;;
60614;SDS011;46444;45.590;5.284;2023-04-24T00:06:14;16.85;;;15.85;;
60614;SDS011;46444;45.590;5.284;2023-04-24T00:08:42;16.35;;;15.45;;
60614;SDS011;46444;45.590;5.284;2023-04-24T00:11:07;14.30;;;13.52;;
60614;SDS011;46444;45.590;5.284;2023-04-24T00:13:34;10.90;;;10.30;;
60614;SDS011;46444;45.590;5.284;2023-04-24T00:15:59;12.10;;;11.35;;
60614;SDS011;46444;45.590;5.284;2023-04-24T00:18:25;9.93;;;9.32;;
60614;SDS011;46444;45.590;5.284;2023-04-24T00:20:53;11.43;;;10.43;;
60614;SDS011;46444;45.590;5.284;2023-04-24T00:23:19;11.75;;;10.80;;
60614;SDS011;46444;45.590;5.284;2023-04-24T00:25:45;11.25;;;10.65;;
60614;SDS011;46444;45.590;5.284;2023-04-24T00:28:10;9.95;;;9.38;;
60614;SDS011;46444;45.590;5.284;2023-04-24T00:30:35;10.95;;;10.30;;
60614;SDS011;46444;45.590;5.284;2023-04-24T00:33:01;10.75;;;10.15;;
60614;SDS011;46444;45.590;5.284;2023-04-24T00:35:26;11.05;;;10.35;;
60614;SDS011;46444;45.590;5.284;2023-04-24T00:37:52;11.25;;;10.48;;
60614;SDS011;46444;45.590;5.284;2023-04-24T00:40:17;13.00;;;11.90;;
60614;SDS011;46444;45.590;5.284;2023-04-24T00:42:43;15.82;;;14.82;;
60614;SDS011;46444;45.590;5.284;2023-04-24T00:45:08;16.92;;;16.02;;
60614;SDS011;46444;45.590;5.284;2023-04-24T00:47:34;15.63;;;14.82;;
60614;SDS011;46444;45.590;5.284;2023-04-24T00:50:01;14.93;;;14.13;;
60614;SDS011;46444;45.590;5.284;2023-04-24T00:52:27;18.10;;;17.08;;
60614;SDS011;46444;45.590;5.284;2023-04-24T00:54:53;18.77;;;17.75;;
60614;SDS011;46444;45.590;5.284;2023-04-24T00:57:18;16.05;;;15.25;;
60614;SDS011;46444;45.590;5.284;2023-04-24T00:59:44;18.75;;;17.77;;
60614;SDS011;46444;45.590;5.284;2023-04-24T01:02:11;17.75;;;16.77;;
60614;SDS011;46444;45.590;5.284;2023-04-24T01:04:38;19.02;;;17.92;;
60614;SDS011;46444;45.590;5.284;2023-04-24T01:07:04;18.60;;;17.42;;
60614;SDS011;46444;45.590;5.284;2023-04-24T01:09:35;21.20;;;20.10;;
60614;SDS011;46444;45.590;5.284;2023-04-24T01:12:02;22.23;;;20.85;;
60614;SDS011;46444;45.590;5.284;2023-04-24T01:14:28;18.40;;;17.27;;
60614;SDS011;46444;45.590;5.284;2023-04-24T01:16:53;19.67;;;18.38;;
60614;SDS011;46444;45.590;5.284;2023-04-24T01:19:20;16.98;;;16.08;;
60614;SDS011;46444;45.590;5.284;2023-04-24T01:21:46;17.02;;;15.95;;
60614;SDS011;46444;45.590;5.284;2023-04-24T01:24:15;12.60;;;11.70;;
60614;SDS011;46444;45.590;5.284;2023-04-24T01:26:46;14.52;;;13.48;;
60614;SDS011;46444;45.590;5.284;2023-04-24T01:29:13;10.88;;;10.07;;
60614;SDS011;46444;45.590;5.284;2023-04-24T01:31:39;12.70;;;11.95;;
60614;SDS011;46444;45.590;5.284;2023-04-24T01:34:17;13.45;;;12.65;;
60614;SDS011;46444;45.590;5.284;2023-04-24T01:36:45;14.13;;;13.23;;
60614;SDS011;46444;45.590;5.284;2023-04-24T01:39:13;13.30;;;12.50;;
60614;SDS011;46444;45.590;5.284;2023-04-24T01:41:42;15.98;;;14.98;;
60614;SDS011;46444;45.590;5.284;2023-04-24T01:44:08;16.45;;;15.55;;
60614;SDS011;46444;45.590;5.284;2023-04-24T01:46:40;16.92;;;15.93;;
60614;SDS011;46444;45.590;5.284;2023-04-24T01:49:06;16.98;;;15.88;;
60614;SDS011;46444;45.590;5.284;2023-04-24T01:51:31;14.65;;;13.75;;
60614;SDS011;46444;45.590;5.284;2023-04-24T01:53:57;17.35;;;16.23;;
60614;SDS011;46444;45.590;5.284;2023-04-24T01:56:23;17.70;;;16.60;;
60614;SDS011;46444;45.590;5.284;2023-04-24T01:58:49;13.98;;;13.15;;
60614;SDS011;46444;45.590;5.284;2023-04-24T02:01:20;15.13;;;14.25;;
60614;SDS011;46444;45.590;5.284;2023-04-24T02:03:46;17.25;;;16.38;;
60614;SDS011;46444;45.590;5.284;2023-04-24T02:06:11;16.98;;;15.93;;
60614;SDS011;46444;45.590;5.284;2023-04-24T02:08:37;20.10;;;19.00;;
60614;SDS011;46444;45.590;5.284;2023-04-24T02:11:02;19.35;;;18.42;;
60614;SDS011;46444;45.590;5.284;2023-04-24T02:13:28;19.33;;;18.33;;
60614;SDS011;46444;45.590;5.284;2023-04-24T02:15:53;14.55;;;13.57;;
60614;SDS011;46444;45.590;5.284;2023-04-24T02:18:19;17.00;;;15.73;;
60614;SDS011;46444;45.590;5.284;2023-04-24T02:20:44;18.33;;;17.08;;
60614;SDS011;46444;45.590;5.284;2023-04-24T02:23:13;13.23;;;12.52;;
60614;SDS011;46444;45.590;5.284;2023-04-24T02:25:39;14.13;;;13.32;;
60614;SDS011;46444;45.590;5.284;2023-04-24T02:28:05;20.30;;;19.17;;
60614;SDS011;46444;45.590;5.284;2023-04-24T02:30:30;15.00;;;14.07;;
60614;SDS011;46444;45.590;5.284;2023-04-24T02:32:55;11.63;;;10.93;;
60614;SDS011;46444;45.590;5.284;2023-04-24T02:35:21;11.02;;;10.27;;
60614;SDS011;46444;45.590;5.284;2023-04-24T02:37:47;14.90;;;14.20;;
60614;SDS011;46444;45.590;5.284;2023-04-24T02:40:13;24.30;;;22.90;;
60614;SDS011;46444;45.590;5.284;2023-04-24T02:42:42;18.25;;;17.30;;
60614;SDS011;46444;45.590;5.284;2023-04-24T02:45:08;23.48;;;22.17;;
60614;SDS011;46444;45.590;5.284;2023-04-24T02:47:34;13.23;;;12.48;;
60614;SDS011;46444;45.590;5.284;2023-04-24T02:50:01;18.60;;;17.42;;
60614;SDS011;46444;45.590;5.284;2023-04-24T02:52:32;15.88;;;14.85;;
60614;SDS011;46444;45.590;5.284;2023-04-24T02:54:58;15.98;;;15.07;;
60614;SDS011;46444;45.590;5.284;2023-04-24T02:57:26;10.35;;;9.55;;
60614;SDS011;46444;45.590;5.284;2023-04-24T02:59:55;10.25;;;9.65;;
60614;SDS011;46444;45.590;5.284;2023-04-24T03:02:22;10.68;;;9.88;;
60614;SDS011;46444;45.590;5.284;2023-04-24T03:04:48;9.95;;;9.45;;
60614;SDS011;46444;45.590;5.284;2023-04-24T03:07:13;9.90;;;9.30;;
60614;SDS011;46444;45.590;5.284;2023-04-24T03:09:39;9.63;;;8.98;;
60614;SDS011;46444;45.590;5.284;2023-04-24T03:12:05;10.60;;;10.00;;
60614;SDS011;46444;45.590;5.284;2023-04-24T03:14:31;12.40;;;11.57;;
60614;SDS011;46444;45.590;5.284;2023-04-24T03:16:56;10.70;;;9.88;;
60614;SDS011;46444;45.590;5.284;2023-04-24T03:19:22;13.57;;;12.57;;
60614;SDS011;46444;45.590;5.284;2023-04-24T03:21:47;11.20;;;10.50;;
60614;SDS011;46444;45.590;5.284;2023-04-24T03:24:13;12.55;;;11.73;;
60614;SDS011;46444;45.590;5.284;2023-04-24T03:26:39;9.48;;;8.95;;
60614;SDS011;46444;45.590;5.284;2023-04-24T03:29:06;10.98;;;10.20;;
60614;SDS011;46444;45.590;5.284;2023-04-24T03:31:31;11.88;;;11.27;;
60614;SDS011;46444;45.590;5.284;2023-04-24T03:33:59;8.73;;;7.93;;
60614;SDS011;46444;45.590;5.284;2023-04-24T03:36:25;10.70;;;10.10;;
60614;SDS011;46444;45.590;5.284;2023-04-24T03:38:51;13.60;;;12.73;;
60614;SDS011;46444;45.590;5.284;2023-04-24T03:41:16;20.10;;;19.00;;
60614;SDS011;46444;45.590;5.284;2023-04-24T03:43:42;18.98;;;18.08;;
60614;SDS011;46444;45.590;5.284;2023-04-24T03:46:09;51.40;;;48.80;;
60614;SDS011;46444;45.590;5.284;2023-04-24T03:48:35;61.67;;;58.50;;
60614;SDS011;46444;45.590;5.284;2023-04-24T03:51:00;67.13;;;63.92;;
60614;SDS011;46444;45.590;5.284;2023-04-24T03:53:29;62.88;;;59.65;;
60614;SDS011;46444;45.590;5.284;2023-04-24T03:55:55;99.55;;;94.75;;
60614;SDS011;46444;45.590;5.284;2023-04-24T03:58:20;86.20;;;82.03;;
60614;SDS011;46444;45.590;5.284;2023-04-24T04:00:45;60.05;;;57.15;;
60614;SDS011;46444;45.590;5.284;2023-04-24T04:03:13;66.93;;;63.65;;
60614;SDS011;46444;45.590;5.284;2023-04-24T04:05:39;66.60;;;63.40;;
60614;SDS011;46444;45.590;5.284;2023-04-24T04:08:05;85.43;;;81.22;;
60614;SDS011;46444;45.590;5.284;2023-04-24T04:10:30;118.07;;;112.28;;
60614;SDS011;46444;45.590;5.284;2023-04-24T04:12:56;96.07;;;91.20;;
60614;SDS011;46444;45.590;5.284;2023-04-24T04:15:21;77.90;;;73.80;;
60614;SDS011;46444;45.590;5.284;2023-04-24T04:17:46;113.25;;;107.63;;
60614;SDS011;46444;45.590;5.284;2023-04-24T04:20:12;88.35;;;83.95;;
60614;SDS011;46444;45.590;5.284;2023-04-24T04:22:38;85.82;;;81.43;;
60614;SDS011;46444;45.590;5.284;2023-04-24T04:25:03;58.03;;;55.00;;
60614;SDS011;46444;45.590;5.284;2023-04-24T04:27:33;57.28;;;54.20;;
60614;SDS011;46444;45.590;5.284;2023-04-24T04:29:59;55.55;;;52.65;;
60614;SDS011;46444;45.590;5.284;2023-04-24T04:32:32;70.03;;;66.50;;
60614;SDS011;46444;45.590;5.284;2023-04-24T04:35:00;58.83;;;55.88;;
60614;SDS011;46444;45.590;5.284;2023-04-24T04:37:30;65.28;;;61.97;;
60614;SDS011;46444;45.590;5.284;2023-04-24T04:39:56;77.45;;;73.40;;
60614;SDS011;46444;45.590;5.284;2023-04-24T04:42:25;58.28;;;55.28;;
60614;SDS011;46444;45.590;5.284;2023-04-24T04:44:55;56.85;;;53.50;;
60614;SDS011;46444;45.590;5.284;2023-04-24T04:47:22;64.15;;;60.80;;
60614;SDS011;46444;45.590;5.284;2023-04-24T04:49:54;61.63;;;58.30;;
60614;SDS011;46444;45.590;5.284;2023-04-24T04:52:20;64.10;;;60.88;;
60614;SDS011;46444;45.590;5.284;2023-04-24T04:54:50;97.45;;;92.75;;
60614;SDS011;46444;45.590;5.284;2023-04-24T04:57:29;71.10;;;67.55;;
60614;SDS011;46444;45.590;5.284;2023-04-24T05:02:46;64.13;;;60.97;;
60614;SDS011;46444;45.590;5.284;2023-04-24T05:05:11;123.93;;;117.93;;
60614;SDS011;46444;45.590;5.284;2023-04-24T05:07:37;70.10;;;66.53;;
60614;SDS011;46444;45.590;5.284;2023-04-24T05:10:02;82.03;;;77.95;;
60614;SDS011;46444;45.590;5.284;2023-04-24T05:12:28;72.47;;;68.78;;
60614;SDS011;46444;45.590;5.284;2023-04-24T05:14:53;64.75;;;61.42;;
60614;SDS011;46444;45.590;5.284;2023-04-24T05:17:18;70.68;;;66.85;;
60614;SDS011;46444;45.590;5.284;2023-04-24T05:19:44;98.68;;;93.88;;
60614;SDS011;46444;45.590;5.284;2023-04-24T05:22:09;73.05;;;69.28;;
60614;SDS011;46444;45.590;5.284;2023-04-24T05:24:36;81.40;;;76.00;;
60614;SDS011;46444;45.590;5.284;2023-04-24T05:27:02;101.03;;;94.97;;
60614;SDS011;46444;45.590;5.284;2023-04-24T05:29:29;68.15;;;64.28;;
60614;SDS011;46444;45.590;5.284;2023-04-24T05:31:56;85.60;;;80.65;;
60614;SDS011;46444;45.590;5.284;2023-04-24T05:34:21;81.32;;;75.50;;
60614;SDS011;46444;45.590;5.284;2023-04-24T05:36:47;65.43;;;61.55;;
60614;SDS011;46444;45.590;5.284;2023-04-24T05:39:13;95.30;;;90.15;;
60614;SDS011;46444;45.590;5.284;2023-04-24T05:41:39;85.43;;;80.88;;
60614;SDS011;46444;45.590;5.284;2023-04-24T05:44:04;119.30;;;113.43;;
60614;SDS011;46444;45.590;5.284;2023-04-24T05:46:29;68.40;;;64.95;;
60614;SDS011;46444;45.590;5.284;2023-04-24T05:48:55;76.40;;;72.57;;
60614;SDS011;46444;45.590;5.284;2023-04-24T05:51:20;79.55;;;75.05;;
60614;SDS011;46444;45.590;5.284;2023-04-24T05:58:51;81.35;;;77.35;;
60614;SDS011;46444;45.590;5.284;2023-04-24T06:01:17;120.25;;;114.45;;
60614;SDS011;46444;45.590;5.284;2023-04-24T06:03:43;158.20;;;150.50;;
60614;SDS011;46444;45.590;5.284;2023-04-24T06:06:08;92.60;;;88.05;;
60614;SDS011;46444;45.590;5.284;2023-04-24T06:08:34;68.47;;;64.95;;
60614;SDS011;46444;45.590;5.284;2023-04-24T06:11:00;91.03;;;86.45;;
60614;SDS011;46444;45.590;5.284;2023-04-24T06:13:25;69.05;;;65.53;;
60614;SDS011;46444;45.590;5.284;2023-04-24T06:15:50;79.68;;;75.57;;
60614;SDS011;46444;45.590;5.284;2023-04-24T06:18:16;71.18;;;67.47;;
60614;SDS011;46444;45.590;5.284;2023-04-24T06:20:42;69.72;;;66.18;;
60614;SDS011;46444;45.590;5.284;2023-04-24T06:23:07;81.68;;;77.50;;
60614;SDS011;46444;45.590;5.284;2023-04-24T06:25:32;109.57;;;103.97;;
60614;SDS011;46444;45.590;5.284;2023-04-24T06:27:58;98.10;;;93.15;;
60614;SDS011;46444;45.590;5.284;2023-04-24T06:30:23;81.68;;;77.55;;
60614;SDS011;46444;45.590;5.284;2023-04-24T06:32:48;86.93;;;82.43;;
60614;SDS011;46444;45.590;5.284;2023-04-24T06:35:14;87.07;;;82.68;;
60614;SDS011;46444;45.590;5.284;2023-04-24T06:37:41;87.85;;;83.32;;
60614;SDS011;46444;45.590;5.284;2023-04-24T06:40:08;75.93;;;71.65;;
60614;SDS011;46444;45.590;5.284;2023-04-24T06:42:34;147.07;;;139.80;;
60614;SDS011;46444;45.590;5.284;2023-04-24T06:45:00;152.48;;;144.75;;
60614;SDS011;46444;45.590;5.284;2023-04-24T06:47:25;85.93;;;81.82;;
60614;SDS011;46444;45.590;5.284;2023-04-24T06:49:50;41.60;;;39.33;;
60614;SDS011;46444;45.590;5.284;2023-04-24T06:52:17;42.42;;;39.92;;
60614;SDS011;46444;45.590;5.284;2023-04-24T06:54:42;28.40;;;26.77;;
60614;SDS011;46444;45.590;5.284;2023-04-24T06:57:08;30.67;;;28.77;;
60614;SDS011;46444;45.590;5.284;2023-04-24T06:59:35;28.48;;;26.77;;
60614;SDS011;46444;45.590;5.284;2023-04-24T07:02:00;80.20;;;76.20;;
60614;SDS011;46444;45.590;5.284;2023-04-24T07:04:26;33.33;;;31.60;;
60614;SDS011;46444;45.590;5.284;2023-04-24T07:06:51;32.22;;;30.30;;
60614;SDS011;46444;45.590;5.284;2023-04-24T07:09:19;37.05;;;35.10;;
60614;SDS011;46444;45.590;5.284;2023-04-24T07:11:45;83.45;;;79.30;;
60614;SDS011;46444;45.590;5.284;2023-04-24T07:14:11;194.60;;;185.27;;
60614;SDS011;46444;45.590;5.284;2023-04-24T07:16:37;25.70;;;24.40;;
60614;SDS011;46444;45.590;5.284;2023-04-24T07:19:02;46.15;;;43.63;;
60614;SDS011;46444;45.590;5.284;2023-04-24T07:21:28;73.30;;;69.60;;
60614;SDS011;46444;45.590;5.284;2023-04-24T07:23:53;21.08;;;19.92;;
60614;SDS011;46444;45.590;5.284;2023-04-24T07:26:19;20.52;;;19.23;;
60614;SDS011;46444;45.590;5.284;2023-04-24T07:28:45;31.10;;;29.33;;
60614;SDS011;46444;45.590;5.284;2023-04-24T07:31:11;23.15;;;21.75;;
60614;SDS011;46444;45.590;5.284;2023-04-24T07:33:36;141.88;;;134.93;;
60614;SDS011;46444;45.590;5.284;2023-04-24T07:36:02;30.38;;;28.63;;
60614;SDS011;46444;45.590;5.284;2023-04-24T07:38:29;97.65;;;92.95;;
60614;SDS011;46444;45.590;5.284;2023-04-24T07:40:55;91.55;;;87.03;;
60614;SDS011;46444;45.590;5.284;2023-04-24T07:43:20;37.00;;;35.00;;
60614;SDS011;46444;45.590;5.284;2023-04-24T07:45:46;48.20;;;45.65;;
60614;SDS011;46444;45.590;5.284;2023-04-24T07:48:12;53.03;;;50.28;;
60614;SDS011;46444;45.590;5.284;2023-04-24T07:50:39;42.85;;;40.75;;
60614;SDS011;46444;45.590;5.284;2023-04-24T07:53:05;11.18;;;10.15;;
60614;SDS011;46444;45.590;5.284;2023-04-24T07:55:30;10.27;;;9.63;;
60614;SDS011;46444;45.590;5.284;2023-04-24T07:57:56;6.88;;;6.38;;
60614;SDS011;46444;45.590;5.284;2023-04-24T08:00:21;9.35;;;6.63;;
60614;SDS011;46444;45.590;5.284;2023-04-24T08:02:46;10.57;;;9.75;;
60614;SDS011;46444;45.590;5.284;2023-04-24T08:05:12;10.65;;;9.77;;
60614;SDS011;46444;45.590;5.284;2023-04-24T08:07:37;18.13;;;16.98;;
60614;SDS011;46444;45.590;5.284;2023-04-24T08:10:03;12.93;;;12.10;;
60614;SDS011;46444;45.590;5.284;2023-04-24T08:12:29;19.67;;;18.35;;
60614;SDS011;46444;45.590;5.284;2023-04-24T08:14:55;11.48;;;10.75;;
60614;SDS011;46444;45.590;5.284;2023-04-24T08:17:20;16.50;;;15.43;;
60614;SDS011;46444;45.590;5.284;2023-04-24T08:19:45;14.18;;;13.32;;
60614;SDS011;46444;45.590;5.284;2023-04-24T08:22:13;6.55;;;5.13;;
60614;SDS011;46444;45.590;5.284;2023-04-24T08:24:39;4.18;;;3.78;;
60614;SDS011;46444;45.590;5.284;2023-04-24T08:27:05;6.80;;;6.18;;
60614;SDS011;46444;45.590;5.284;2023-04-24T08:29:30;4.93;;;4.63;;
60614;SDS011;46444;45.590;5.284;2023-04-24T08:31:56;5.55;;;5.05;;
60614;SDS011;46444;45.590;5.284;2023-04-24T08:34:21;5.20;;;4.22;;
60614;SDS011;46444;45.590;5.284;2023-04-24T08:36:47;4.80;;;4.35;;
60614;SDS011;46444;45.590;5.284;2023-04-24T08:39:12;7.97;;;7.38;;
60614;SDS011;46444;45.590;5.284;2023-04-24T08:41:38;6.18;;;2.95;;
60614;SDS011;46444;45.590;5.284;2023-04-24T08:44:07;3.67;;;3.00;;
60614;SDS011;46444;45.590;5.284;2023-04-24T08:46:34;4.43;;;3.90;;
60614;SDS011;46444;45.590;5.284;2023-04-24T08:49:01;10.68;;;9.77;;
60614;SDS011;46444;45.590;5.284;2023-04-24T08:51:27;7.10;;;6.57;;
60614;SDS011;46444;45.590;5.284;2023-04-24T08:53:53;6.70;;;6.07;;
60614;SDS011;46444;45.590;5.284;2023-04-24T08:56:20;4.03;;;3.53;;
60614;SDS011;46444;45.590;5.284;2023-04-24T08:58:48;3.95;;;3.55;;
60614;SDS011;46444;45.590;5.284;2023-04-24T09:01:15;4.25;;;2.53;;
60614;SDS011;46444;45.590;5.284;2023-04-24T09:03:41;4.43;;;2.78;;
60614;SDS011;46444;45.590;5.284;2023-04-24T09:06:08;4.68;;;2.22;;
60614;SDS011;46444;45.590;5.284;2023-04-24T09:08:35;4.82;;;2.45;;
60614;SDS011;46444;45.590;5.284;2023-04-24T09:11:01;4.60;;;2.78;;
60614;SDS011;46444;45.590;5.284;2023-04-24T09:13:28;4.43;;;3.22;;
60614;SDS011;46444;45.590;5.284;2023-04-24T09:15:54;4.63;;;2.88;;
60614;SDS011;46444;45.590;5.284;2023-04-24T09:18:22;5.28;;;3.05;;
60614;SDS011;46444;45.590;5.284;2023-04-24T09:20:56;3.17;;;2.20;;
60614;SDS011;46444;45.590;5.284;2023-04-24T09:23:31;3.10;;;2.13;;
60614;SDS011;46444;45.590;5.284;2023-04-24T09:25:58;4.95;;;2.08;;
60614;SDS011;46444;45.590;5.284;2023-04-24T09:28:26;2.78;;;1.83;;
60614;SDS011;46444;45.590;5.284;2023-04-24T09:31:08;4.03;;;2.58;;
60614;SDS011;46444;45.590;5.284;2023-04-24T09:33:35;5.00;;;2.27;;
60614;SDS011;46444;45.590;5.284;2023-04-24T09:36:01;4.63;;;2.28;;
60614;SDS011;46444;45.590;5.284;2023-04-24T09:38:31;4.80;;;1.88;;
60614;SDS011;46444;45.590;5.284;2023-04-24T09:41:15;2.90;;;2.10;;
60614;SDS011;46444;45.590;5.284;2023-04-24T09:43:41;2.70;;;1.85;;
60614;SDS011;46444;45.590;5.284;2023-04-24T09:46:07;2.90;;;2.10;;
60614;SDS011;46444;45.590;5.284;2023-04-24T09:48:35;2.38;;;1.73;;
60614;SDS011;46444;45.590;5.284;2023-04-24T09:51:02;2.42;;;1.98;;
60614;SDS011;46444;45.590;5.284;2023-04-24T09:53:32;5.28;;;2.22;;
60614;SDS011;46444;45.590;5.284;2023-04-24T09:56:07;3.50;;;2.10;;
60614;SDS011;46444;45.590;5.284;2023-04-24T09:58:35;4.10;;;1.80;;
60614;SDS011;46444;45.590;5.284;2023-04-24T10:01:01;3.05;;;2.10;;
60614;SDS011;46444;45.590;5.284;2023-04-24T10:03:29;3.50;;;2.38;;
60614;SDS011;46444;45.590;5.284;2023-04-24T10:05:59;4.07;;;2.38;;
60614;SDS011;46444;45.590;5.284;2023-04-24T10:08:25;4.63;;;2.33;;
60614;SDS011;46444;45.590;5.284;2023-04-24T10:10:51;2.45;;;2.05;;
60614;SDS011;46444;45.590;5.284;2023-04-24T10:13:17;3.20;;;2.05;;
60614;SDS011;46444;45.590;5.284;2023-04-24T10:15:43;4.15;;;2.05;;
60614;SDS011;46444;45.590;5.284;2023-04-24T10:18:09;3.97;;;2.25;;
60614;SDS011;46444;45.590;5.284;2023-04-24T10:20:36;2.95;;;1.67;;
60614;SDS011;46444;45.590;5.284;2023-04-24T10:23:04;4.13;;;1.85;;
60614;SDS011;46444;45.590;5.284;2023-04-24T10:25:30;2.80;;;1.80;;
60614;SDS011;46444;45.590;5.284;2023-04-24T10:27:57;3.63;;;2.03;;
60614;SDS011;46444;45.590;5.284;2023-04-24T10:30:25;3.60;;;1.88;;
60614;SDS011;46444;45.590;5.284;2023-04-24T10:33:00;1.98;;;1.60;;
60614;SDS011;46444;45.590;5.284;2023-04-24T10:35:34;3.03;;;2.28;;
60614;SDS011;46444;45.590;5.284;2023-04-24T10:40:31;2.17;;;1.63;;
60614;SDS011;46444;45.590;5.284;2023-04-24T10:42:58;2.45;;;1.75;;
60614;SDS011;46444;45.590;5.284;2023-04-24T10:45:24;3.00;;;1.98;;
60614;SDS011;46444;45.590;5.284;2023-04-24T10:47:59;3.58;;;1.95;;
60614;SDS011;46444;45.590;5.284;2023-04-24T10:50:28;4.03;;;1.73;;
60614;SDS011;46444;45.590;5.284;2023-04-24T10:53:04;4.25;;;2.00;;
60614;SDS011;46444;45.590;5.284;2023-04-24T10:55:41;3.40;;;2.03;;
60614;SDS011;46444;45.590;5.284;2023-04-24T10:58:09;2.92;;;2.17;;
60614;SDS011;46444;45.590;5.284;2023-04-24T11:00:39;3.17;;;1.98;;
60614;SDS011;46444;45.590;5.284;2023-04-24T11:03:06;3.80;;;1.90;;
60614;SDS011;46444;45.590;5.284;2023-04-24T11:05:55;4.90;;;2.17;;
60614;SDS011;46444;45.590;5.284;2023-04-24T11:08:29;3.13;;;2.10;;
60614;SDS011;46444;45.590;5.284;2023-04-24T11:10:56;3.70;;;1.85;;
60614;SDS011;46444;45.590;5.284;2023-04-24T11:16:23;3.27;;;2.20;;
60614;SDS011;46444;45.590;5.284;2023-04-24T11:21:43;3.85;;;2.10;;
60614;SDS011;46444;45.590;5.284;2023-04-24T11:24:25;3.42;;;1.85;;
60614;SDS011;46444;45.590;5.284;2023-04-24T11:29:38;3.30;;;1.90;;
60614;SDS011;46444;45.590;5.284;2023-04-24T11:32:29;5.43;;;1.90;;
60614;SDS011;46444;45.590;5.284;2023-04-24T11:37:27;3.60;;;1.63;;
60614;SDS011;46444;45.590;5.284;2023-04-24T11:39:55;3.50;;;1.88;;
60614;SDS011;46444;45.590;5.284;2023-04-24T11:42:23;3.08;;;1.85;;
60614;SDS011;46444;45.590;5.284;2023-04-24T11:44:51;5.63;;;1.98;;
60614;SDS011;46444;45.590;5.284;2023-04-24T11:47:20;3.30;;;1.60;;
60614;SDS011;46444;45.590;5.284;2023-04-24T11:49:52;3.22;;;1.75;;
60614;SDS011;46444;45.590;5.284;2023-04-24T11:52:17;4.63;;;2.10;;
60614;SDS011;46444;45.590;5.284;2023-04-24T11:54:49;4.13;;;1.95;;
60614;SDS011;46444;45.590;5.284;2023-04-24T11:57:15;4.38;;;1.60;;
60614;SDS011;46444;45.590;5.284;2023-04-24T11:59:41;3.45;;;1.65;;
60614;SDS011;46444;45.590;5.284;2023-04-24T12:02:06;3.50;;;1.70;;
60614;SDS011;46444;45.590;5.284;2023-04-24T12:04:38;3.45;;;1.67;;
60614;SDS011;46444;45.590;5.284;2023-04-24T12:07:05;3.22;;;1.30;;
60614;SDS011;46444;45.590;5.284;2023-04-24T12:09:40;6.63;;;2.00;;
60614;SDS011;46444;45.590;5.284;2023-04-24T12:12:07;3.08;;;1.70;;
60614;SDS011;46444;45.590;5.284;2023-04-24T12:14:41;4.20;;;1.52;;
60614;SDS011;46444;45.590;5.284;2023-04-24T12:17:12;2.97;;;1.58;;
60614;SDS011;46444;45.590;5.284;2023-04-24T12:19:37;2.90;;;1.70;;
60614;SDS011;46444;45.590;5.284;2023-04-24T12:22:03;2.38;;;1.58;;
60614;SDS011;46444;45.590;5.284;2023-04-24T12:24:30;4.65;;;1.42;;
60614;SDS011;46444;45.590;5.284;2023-04-24T12:26:56;3.05;;;1.50;;
60614;SDS011;46444;45.590;5.284;2023-04-24T12:29:22;2.47;;;1.45;;
60614;SDS011;46444;45.590;5.284;2023-04-24T12:31:48;2.15;;;1.52;;
60614;SDS011;46444;45.590;5.284;2023-04-24T12:34:23;3.28;;;1.63;;
60614;SDS011;46444;45.590;5.284;2023-04-24T12:36:50;3.67;;;1.70;;
60614;SDS011;46444;45.590;5.284;2023-04-24T12:39:18;3.42;;;1.38;;
60614;SDS011;46444;45.590;5.284;2023-04-24T12:41:57;4.10;;;2.00;;
60614;SDS011;46444;45.590;5.284;2023-04-24T12:44:33;2.80;;;1.50;;
60614;SDS011;46444;45.590;5.284;2023-04-24T12:47:00;3.58;;;1.42;;
60614;SDS011;46444;45.590;5.284;2023-04-24T12:49:26;4.05;;;1.92;;
60614;SDS011;46444;45.590;5.284;2023-04-24T12:51:51;3.65;;;1.60;;
60614;SDS011;46444;45.590;5.284;2023-04-24T12:54:17;3.67;;;1.70;;
60614;SDS011;46444;45.590;5.284;2023-04-24T12:56:42;3.55;;;1.42;;
60614;SDS011;46444;45.590;5.284;2023-04-24T12:59:08;3.13;;;1.63;;
60614;SDS011;46444;45.590;5.284;2023-04-24T13:01:33;3.45;;;1.85;;
60614;SDS011;46444;45.590;5.284;2023-04-24T13:03:58;2.17;;;1.27;;
60614;SDS011;46444;45.590;5.284;2023-04-24T13:06:23;7.47;;;4.55;;
60614;SDS011;46444;45.590;5.284;2023-04-24T13:08:49;2.70;;;1.80;;
60614;SDS011;46444;45.590;5.284;2023-04-24T13:11:14;3.33;;;1.58;;
60614;SDS011;46444;45.590;5.284;2023-04-24T13:13:40;3.92;;;1.42;;
60614;SDS011;46444;45.590;5.284;2023-04-24T13:16:05;4.82;;;1.65;;
60614;SDS011;46444;45.590;5.284;2023-04-24T13:18:30;3.05;;;1.38;;
60614;SDS011;46444;45.590;5.284;2023-04-24T13:20:56;3.75;;;1.20;;
60614;SDS011;46444;45.590;5.284;2023-04-24T13:23:21;2.30;;;1.30;;
60614;SDS011;46444;45.590;5.284;2023-04-24T13:25:47;2.58;;;1.30;;
60614;SDS011;46444;45.590;5.284;2023-04-24T13:28:13;2.80;;;1.45;;
60614;SDS011;46444;45.590;5.284;2023-04-24T13:30:38;2.38;;;1.35;;
60614;SDS011;46444;45.590;5.284;2023-04-24T13:33:04;4.22;;;1.80;;
60614;SDS011;46444;45.590;5.284;2023-04-24T13:35:29;6.68;;;1.67;;
60614;SDS011;46444;45.590;5.284;2023-04-24T13:37:55;1.95;;;1.00;;
60614;SDS011;46444;45.590;5.284;2023-04-24T13:40:20;3.08;;;1.60;;
60614;SDS011;46444;45.590;5.284;2023-04-24T13:42:45;2.72;;;1.40;;
60614;SDS011;46444;45.590;5.284;2023-04-24T13:45:11;3.15;;;1.40;;
60614;SDS011;46444;45.590;5.284;2023-04-24T13:47:36;5.20;;;1.60;;
60614;SDS011;46444;45.590;5.284;2023-04-24T13:50:02;3.65;;;1.38;;
60614;SDS011;46444;45.590;5.284;2023-04-24T13:52:27;1.45;;;1.10;;
60614;SDS011;46444;45.590;5.284;2023-04-24T13:54:53;3.70;;;1.90;;
60614;SDS011;46444;45.590;5.284;2023-04-24T13:57:18;2.50;;;1.15;;
60614;SDS011;46444;45.590;5.284;2023-04-24T13:59:44;2.35;;;1.50;;
60614;SDS011;46444;45.590;5.284;2023-04-24T14:02:10;2.08;;;1.50;;
60614;SDS011;46444;45.590;5.284;2023-04-24T14:04:35;3.85;;;1.40;;
60614;SDS011;46444;45.590;5.284;2023-04-24T14:07:00;2.83;;;1.30;;
60614;SDS011;46444;45.590;5.284;2023-04-24T14:09:26;3.60;;;1.50;;
60614;SDS011;46444;45.590;5.284;2023-04-24T14:11:51;3.00;;;1.30;;
60614;SDS011;46444;45.590;5.284;2023-04-24T14:14:17;2.05;;;1.40;;
60614;SDS011;46444;45.590;5.284;2023-04-24T14:16:42;1.50;;;1.30;;
60614;SDS011;46444;45.590;5.284;2023-04-24T14:19:08;1.85;;;1.15;;
60614;SDS011;46444;45.590;5.284;2023-04-24T14:21:33;4.10;;;1.30;;
60614;SDS011;46444;45.590;5.284;2023-04-24T14:23:58;2.10;;;1.25;;
60614;SDS011;46444;45.590;5.284;2023-04-24T14:26:24;6.80;;;2.10;;
60614;SDS011;46444;45.590;5.284;2023-04-24T14:28:50;2.13;;;1.52;;
60614;SDS011;46444;45.590;5.284;2023-04-24T14:31:15;2.75;;;1.10;;
60614;SDS011;46444;45.590;5.284;2023-04-24T14:33:41;3.45;;;1.38;;
60614;SDS011;46444;45.590;5.284;2023-04-24T14:36:06;1.95;;;1.20;;
60614;SDS011;46444;45.590;5.284;2023-04-24T14:38:32;2.78;;;1.40;;
60614;SDS011;46444;45.590;5.284;2023-04-24T14:40:57;4.15;;;1.50;;
60614;SDS011;46444;45.590;5.284;2023-04-24T14:43:22;2.67;;;1.40;;
60614;SDS011;46444;45.590;5.284;2023-04-24T14:45:48;2.35;;;1.50;;
60614;SDS011;46444;45.590;5.284;2023-04-24T14:48:13;3.25;;;1.73;;
60614;SDS011;46444;45.590;5.284;2023-04-24T14:50:39;3.03;;;1.48;;
60614;SDS011;46444;45.590;5.284;2023-04-24T14:53:04;1.88;;;1.30;;